sensor_id;sensor_type;location;lat;lon;timestamp;pressure;altitude;pressure_sealevel;temperature;humidity
73338;BME280;61575;49.908;35.556;2022-07-23T00:00:20;98889.22;;;16.40;85.15
73338;BME280;61575;49.908;35.556;2022-07-23T00:03:22;98881.94;;;16.41;84.80
73338;BME280;61575;49.908;35.556;2022-07-23T00:06:25;98891.94;;;16.40;84.83
73338;BME280;61575;49.908;35.556;2022-07-23T00:09:27;98884.25;;;16.37;84.77
73338;BME280;61575;49.908;35.556;2022-07-23T00:12:30;98884.47;;;16.36;84.82
73338;BME280;61575;49.908;35.556;2022-07-23T00:15:32;98883.88;;;16.27;85.40
73338;BME280;61575;49.908;35.556;2022-07-23T00:18:34;98889.69;;;16.31;85.09
73338;BME280;61575;49.908;35.556;2022-07-23T00:21:36;98883.44;;;16.30;84.92
73338;BME280;61575;49.908;35.556;2022-07-23T00:24:38;98889.72;;;16.24;85.18
73338;BME280;61575;49.908;35.556;2022-07-23T00:27:39;98886.38;;;16.29;84.93
73338;BME280;61575;49.908;35.556;2022-07-23T00:30:41;98881.38;;;16.26;84.80
73338;BME280;61575;49.908;35.556;2022-07-23T00:33:43;98892.19;;;16.26;84.90
73338;BME280;61575;49.908;35.556;2022-07-23T00:36:45;98890.16;;;16.21;85.13
73338;BME280;61575;49.908;35.556;2022-07-23T00:39:47;98889.53;;;16.19;85.14
73338;BME280;61575;49.908;35.556;2022-07-23T00:42:49;98890.78;;;16.16;85.61
73338;BME280;61575;49.908;35.556;2022-07-23T00:45:51;98895.97;;;16.18;85.48
73338;BME280;61575;49.908;35.556;2022-07-23T00:48:53;98882.88;;;16.15;85.61
73338;BME280;61575;49.908;35.556;2022-07-23T00:51:56;98894.13;;;16.12;85.76
73338;BME280;61575;49.908;35.556;2022-07-23T00:54:59;98900.78;;;16.09;85.96
73338;BME280;61575;49.908;35.556;2022-07-23T00:58:01;98907.25;;;16.08;86.20
73338;BME280;61575;49.908;35.556;2022-07-23T01:01:03;98912.66;;;16.08;85.79
73338;BME280;61575;49.908;35.556;2022-07-23T01:04:06;98908.50;;;16.06;86.08
73338;BME280;61575;49.908;35.556;2022-07-23T01:07:08;98910.59;;;16.04;86.19
73338;BME280;61575;49.908;35.556;2022-07-23T01:10:10;98914.75;;;16.00;86.63
73338;BME280;61575;49.908;35.556;2022-07-23T01:13:31;98910.59;;;16.04;86.16
73338;BME280;61575;49.908;35.556;2022-07-23T01:16:32;98913.50;;;16.02;86.40
73338;BME280;61575;49.908;35.556;2022-07-23T01:19:34;98908.94;;;16.03;86.04
73338;BME280;61575;49.908;35.556;2022-07-23T01:22:36;98922.22;;;16.04;86.19
73338;BME280;61575;49.908;35.556;2022-07-23T01:25:48;98916.00;;;16.04;86.16
73338;BME280;61575;49.908;35.556;2022-07-23T01:28:50;98917.47;;;16.00;86.37
73338;BME280;61575;49.908;35.556;2022-07-23T01:31:52;98921.41;;;16.04;86.19
73338;BME280;61575;49.908;35.556;2022-07-23T01:34:54;98916.41;;;16.01;86.26
73338;BME280;61575;49.908;35.556;2022-07-23T01:37:57;98921.81;;;16.01;86.19
73338;BME280;61575;49.908;35.556;2022-07-23T01:40:59;98928.91;;;16.02;86.33
73338;BME280;61575;49.908;35.556;2022-07-23T01:44:06;98932.66;;;16.01;86.40
73338;BME280;61575;49.908;35.556;2022-07-23T01:47:08;98931.81;;;16.00;86.02
73338;BME280;61575;49.908;35.556;2022-07-23T01:50:10;98925.56;;;16.00;86.08
73338;BME280;61575;49.908;35.556;2022-07-23T01:53:18;98938.47;;;15.98;86.08
73338;BME280;61575;49.908;35.556;2022-07-23T01:56:20;98937.44;;;15.92;86.46
73338;BME280;61575;49.908;35.556;2022-07-23T01:59:23;98930.16;;;15.93;86.31
73338;BME280;61575;49.908;35.556;2022-07-23T02:02:25;98934.53;;;15.94;86.08
73338;BME280;61575;49.908;35.556;2022-07-23T02:05:28;98936.00;;;15.83;86.72
73338;BME280;61575;49.908;35.556;2022-07-23T02:08:31;98940.38;;;15.91;86.22
73338;BME280;61575;49.908;35.556;2022-07-23T02:11:36;98933.91;;;15.92;85.98
73338;BME280;61575;49.908;35.556;2022-07-23T02:14:38;98946.81;;;15.90;86.16
73338;BME280;61575;49.908;35.556;2022-07-23T02:17:40;98945.56;;;15.92;86.25
73338;BME280;61575;49.908;35.556;2022-07-23T02:20:42;98952.22;;;15.90;86.55
73338;BME280;61575;49.908;35.556;2022-07-23T02:23:46;98964.06;;;15.88;86.62
73338;BME280;61575;49.908;35.556;2022-07-23T02:26:48;98964.47;;;15.92;86.66
73338;BME280;61575;49.908;35.556;2022-07-23T02:29:52;98972.59;;;15.92;87.04
73338;BME280;61575;49.908;35.556;2022-07-23T02:32:55;98960.94;;;15.98;87.00
73338;BME280;61575;49.908;35.556;2022-07-23T02:35:58;98967.81;;;15.94;87.27
73338;BME280;61575;49.908;35.556;2022-07-23T02:39:00;98966.34;;;15.98;86.94
73338;BME280;61575;49.908;35.556;2022-07-23T02:42:05;98980.50;;;15.94;87.36
73338;BME280;61575;49.908;35.556;2022-07-23T02:45:09;98984.00;;;16.01;87.09
73338;BME280;61575;49.908;35.556;2022-07-23T02:48:11;98985.25;;;16.05;87.11
73338;BME280;61575;49.908;35.556;2022-07-23T02:51:17;98986.47;;;16.15;87.07
73338;BME280;61575;49.908;35.556;2022-07-23T02:54:27;98983.75;;;16.22;87.07
73338;BME280;61575;49.908;35.556;2022-07-23T02:57:29;98988.72;;;16.32;86.79
73338;BME280;61575;49.908;35.556;2022-07-23T03:00:31;98983.50;;;16.37;86.95
73338;BME280;61575;49.908;35.556;2022-07-23T03:03:34;98989.53;;;16.39;86.94
73338;BME280;61575;49.908;35.556;2022-07-23T03:06:36;98987.03;;;16.44;87.00
73338;BME280;61575;49.908;35.556;2022-07-23T03:09:38;98996.38;;;16.48;87.07
73338;BME280;61575;49.908;35.556;2022-07-23T03:12:42;99011.38;;;16.37;88.25
73338;BME280;61575;49.908;35.556;2022-07-23T03:15:44;99014.47;;;16.47;88.24
73338;BME280;61575;49.908;35.556;2022-07-23T03:18:46;99013.00;;;16.51;88.45
73338;BME280;61575;49.908;35.556;2022-07-23T03:21:48;99008.63;;;16.57;88.34
73338;BME280;61575;49.908;35.556;2022-07-23T03:24:50;99014.00;;;16.64;88.35
73338;BME280;61575;49.908;35.556;2022-07-23T03:28:01;99019.03;;;16.67;88.60
73338;BME280;61575;49.908;35.556;2022-07-23T03:31:03;99005.69;;;16.72;88.48
73338;BME280;61575;49.908;35.556;2022-07-23T03:34:05;99013.78;;;16.72;88.78
73338;BME280;61575;49.908;35.556;2022-07-23T03:37:07;99009.63;;;16.76;88.89
73338;BME280;61575;49.908;35.556;2022-07-23T03:40:11;99011.25;;;16.83;88.63
73338;BME280;61575;49.908;35.556;2022-07-23T03:43:14;99016.19;;;16.93;88.76
73338;BME280;61575;49.908;35.556;2022-07-23T03:46:15;99020.31;;;17.02;88.46
73338;BME280;61575;49.908;35.556;2022-07-23T03:49:17;99021.38;;;17.01;88.58
73338;BME280;61575;49.908;35.556;2022-07-23T03:52:20;99022.78;;;17.10;88.20
73338;BME280;61575;49.908;35.556;2022-07-23T03:55:22;99015.63;;;17.23;87.89
73338;BME280;61575;49.908;35.556;2022-07-23T03:58:24;99024.09;;;17.33;87.77
73338;BME280;61575;49.908;35.556;2022-07-23T04:01:27;99025.66;;;17.47;87.40
73338;BME280;61575;49.908;35.556;2022-07-23T04:04:29;99015.25;;;17.44;87.43
73338;BME280;61575;49.908;35.556;2022-07-23T04:07:32;99011.78;;;17.62;87.16
73338;BME280;61575;49.908;35.556;2022-07-23T04:10:34;99022.19;;;17.71;86.95
73338;BME280;61575;49.908;35.556;2022-07-23T04:13:37;99018.19;;;17.74;86.59
73338;BME280;61575;49.908;35.556;2022-07-23T04:16:39;99014.38;;;17.82;86.08
73338;BME280;61575;49.908;35.556;2022-07-23T04:19:41;99015.59;;;17.86;86.20
73338;BME280;61575;49.908;35.556;2022-07-23T04:22:47;99018.63;;;17.96;86.07
73338;BME280;61575;49.908;35.556;2022-07-23T04:25:51;99019.84;;;18.00;86.07
73338;BME280;61575;49.908;35.556;2022-07-23T04:28:53;99014.69;;;18.17;85.63
73338;BME280;61575;49.908;35.556;2022-07-23T04:31:55;99024.41;;;18.24;85.45
73338;BME280;61575;49.908;35.556;2022-07-23T04:34:57;99017.25;;;18.30;85.03
73338;BME280;61575;49.908;35.556;2022-07-23T04:37:59;99015.66;;;18.22;85.12
73338;BME280;61575;49.908;35.556;2022-07-23T04:41:02;99014.53;;;18.30;85.11
73338;BME280;61575;49.908;35.556;2022-07-23T04:44:04;99016.28;;;18.42;84.68
73338;BME280;61575;49.908;35.556;2022-07-23T04:47:06;99020.50;;;18.57;84.64
73338;BME280;61575;49.908;35.556;2022-07-23T04:50:09;99023.63;;;18.79;83.74
73338;BME280;61575;49.908;35.556;2022-07-23T04:53:14;99021.09;;;18.95;83.18
73338;BME280;61575;49.908;35.556;2022-07-23T04:56:17;99022.69;;;18.85;82.68
73338;BME280;61575;49.908;35.556;2022-07-23T04:59:19;99021.03;;;18.84;82.50
73338;BME280;61575;49.908;35.556;2022-07-23T05:02:26;99033.66;;;18.78;82.40
73338;BME280;61575;49.908;35.556;2022-07-23T05:05:28;99018.56;;;18.82;81.90
73338;BME280;61575;49.908;35.556;2022-07-23T05:08:37;99030.03;;;18.84;81.85
73338;BME280;61575;49.908;35.556;2022-07-23T05:11:39;99028.84;;;19.10;80.98
73338;BME280;61575;49.908;35.556;2022-07-23T05:14:41;99033.19;;;19.29;80.40
73338;BME280;61575;49.908;35.556;2022-07-23T05:17:43;99030.75;;;19.51;79.61
73338;BME280;61575;49.908;35.556;2022-07-23T05:20:50;99031.66;;;19.75;78.96
73338;BME280;61575;49.908;35.556;2022-07-23T05:23:54;99023.41;;;20.05;78.21
73338;BME280;61575;49.908;35.556;2022-07-23T05:26:56;99020.22;;;20.20;77.37
73338;BME280;61575;49.908;35.556;2022-07-23T05:30:01;99021.31;;;20.42;76.99
73338;BME280;61575;49.908;35.556;2022-07-23T05:33:06;99024.03;;;20.42;75.86
73338;BME280;61575;49.908;35.556;2022-07-23T05:36:09;99029.94;;;20.39;76.14
73338;BME280;61575;49.908;35.556;2022-07-23T05:39:18;99029.94;;;20.39;76.29
73338;BME280;61575;49.908;35.556;2022-07-23T05:42:22;99027.00;;;20.41;75.83
73338;BME280;61575;49.908;35.556;2022-07-23T05:45:24;99023.16;;;20.65;76.00
73338;BME280;61575;49.908;35.556;2022-07-23T05:48:25;99026.81;;;20.99;74.28
73338;BME280;61575;49.908;35.556;2022-07-23T05:51:41;99020.19;;;21.35;72.90
73338;BME280;61575;49.908;35.556;2022-07-23T05:54:47;99022.38;;;21.66;72.42
73338;BME280;61575;49.908;35.556;2022-07-23T05:57:50;99023.31;;;21.89;71.62
73338;BME280;61575;49.908;35.556;2022-07-23T06:00:52;99008.94;;;22.10;70.58
73338;BME280;61575;49.908;35.556;2022-07-23T06:03:54;99020.31;;;22.24;69.62
73338;BME280;61575;49.908;35.556;2022-07-23T06:06:58;99031.88;;;22.48;68.88
73338;BME280;61575;49.908;35.556;2022-07-23T06:10:00;99031.06;;;22.69;68.13
73338;BME280;61575;49.908;35.556;2022-07-23T06:13:02;99026.38;;;22.86;67.25
73338;BME280;61575;49.908;35.556;2022-07-23T06:16:05;99018.09;;;23.25;66.49
73338;BME280;61575;49.908;35.556;2022-07-23T06:19:07;99021.22;;;23.39;65.61
73338;BME280;61575;49.908;35.556;2022-07-23T06:22:09;99026.34;;;23.84;64.93
73338;BME280;61575;49.908;35.556;2022-07-23T06:25:12;99017.75;;;24.07;64.38
73338;BME280;61575;49.908;35.556;2022-07-23T06:28:20;99024.31;;;24.43;62.49
73338;BME280;61575;49.908;35.556;2022-07-23T06:31:22;99020.22;;;24.46;62.40
73338;BME280;61575;49.908;35.556;2022-07-23T06:34:24;99019.41;;;24.08;62.58
73338;BME280;61575;49.908;35.556;2022-07-23T06:37:26;99015.69;;;24.25;62.85
73338;BME280;61575;49.908;35.556;2022-07-23T06:40:28;99024.53;;;24.00;63.07
73338;BME280;61575;49.908;35.556;2022-07-23T06:43:30;99026.38;;;23.89;63.86
73338;BME280;61575;49.908;35.556;2022-07-23T06:46:32;99016.38;;;23.73;64.36
73338;BME280;61575;49.908;35.556;2022-07-23T06:49:35;99024.84;;;23.71;64.78
73338;BME280;61575;49.908;35.556;2022-07-23T06:52:37;99030.94;;;24.10;64.12
73338;BME280;61575;49.908;35.556;2022-07-23T06:55:43;99021.34;;;24.50;62.59
73338;BME280;61575;49.908;35.556;2022-07-23T06:58:46;99025.34;;;24.79;61.73
73338;BME280;61575;49.908;35.556;2022-07-23T07:01:48;99026.53;;;24.99;60.33
73338;BME280;61575;49.908;35.556;2022-07-23T07:04:50;99022.78;;;25.30;60.69
73338;BME280;61575;49.908;35.556;2022-07-23T07:07:54;99014.31;;;25.42;59.15
73338;BME280;61575;49.908;35.556;2022-07-23T07:10:56;99020.16;;;25.81;58.33
73338;BME280;61575;49.908;35.556;2022-07-23T07:13:58;99034.44;;;25.83;57.56
73338;BME280;61575;49.908;35.556;2022-07-23T07:17:00;99025.88;;;25.64;56.99
73338;BME280;61575;49.908;35.556;2022-07-23T07:20:02;99030.59;;;25.94;56.59
73338;BME280;61575;49.908;35.556;2022-07-23T07:23:04;99022.34;;;25.79;55.92
73338;BME280;61575;49.908;35.556;2022-07-23T07:26:06;99022.34;;;25.94;56.66
73338;BME280;61575;49.908;35.556;2022-07-23T07:29:08;99016.25;;;26.07;54.92
73338;BME280;61575;49.908;35.556;2022-07-23T07:32:10;99009.34;;;26.45;56.20
73338;BME280;61575;49.908;35.556;2022-07-23T07:35:12;99019.19;;;26.67;55.15
73338;BME280;61575;49.908;35.556;2022-07-23T07:38:14;99020.31;;;26.56;53.88
73338;BME280;61575;49.908;35.556;2022-07-23T07:41:16;99019.53;;;26.45;54.05
73338;BME280;61575;49.908;35.556;2022-07-23T07:44:18;99020.34;;;26.25;54.17
73338;BME280;61575;49.908;35.556;2022-07-23T07:47:19;99019.59;;;25.99;54.58
73338;BME280;61575;49.908;35.556;2022-07-23T07:50:22;99020.63;;;26.29;55.06
73338;BME280;61575;49.908;35.556;2022-07-23T07:53:24;99019.78;;;26.54;52.77
73338;BME280;61575;49.908;35.556;2022-07-23T07:56:26;99016.41;;;26.72;51.71
73338;BME280;61575;49.908;35.556;2022-07-23T07:59:28;99005.50;;;27.21;52.29
73338;BME280;61575;49.908;35.556;2022-07-23T08:02:49;99014.47;;;27.37;50.73
73338;BME280;61575;49.908;35.556;2022-07-23T08:06:11;99014.88;;;27.64;50.96
73338;BME280;61575;49.908;35.556;2022-07-23T08:09:13;99026.31;;;27.37;50.54
73338;BME280;61575;49.908;35.556;2022-07-23T08:12:14;99027.97;;;27.38;51.10
73338;BME280;61575;49.908;35.556;2022-07-23T08:15:19;99025.34;;;27.62;50.25
73338;BME280;61575;49.908;35.556;2022-07-23T08:18:21;99029.38;;;27.75;48.69
73338;BME280;61575;49.908;35.556;2022-07-23T08:21:23;99032.09;;;27.80;49.14
73338;BME280;61575;49.908;35.556;2022-07-23T08:24:25;99039.06;;;28.06;49.54
73338;BME280;61575;49.908;35.556;2022-07-23T08:27:26;99035.31;;;28.26;48.79
73338;BME280;61575;49.908;35.556;2022-07-23T08:30:29;99034.50;;;28.26;47.08
73338;BME280;61575;49.908;35.556;2022-07-23T08:33:32;99033.63;;;28.30;47.84
73338;BME280;61575;49.908;35.556;2022-07-23T08:36:38;99034.41;;;28.60;47.73
73338;BME280;61575;49.908;35.556;2022-07-23T08:39:43;99041.25;;;28.38;47.56
73338;BME280;61575;49.908;35.556;2022-07-23T08:42:49;99038.41;;;27.86;46.18
73338;BME280;61575;49.908;35.556;2022-07-23T08:45:54;99036.16;;;27.49;47.57
73338;BME280;61575;49.908;35.556;2022-07-23T08:49:01;99028.25;;;27.81;47.75
73338;BME280;61575;49.908;35.556;2022-07-23T08:52:07;99030.50;;;27.74;48.18
73338;BME280;61575;49.908;35.556;2022-07-23T08:55:09;99029.66;;;27.29;48.83
73338;BME280;61575;49.908;35.556;2022-07-23T08:58:19;99040.81;;;27.04;50.11
73338;BME280;61575;49.908;35.556;2022-07-23T09:01:28;99037.50;;;27.02;51.20
73338;BME280;61575;49.908;35.556;2022-07-23T09:04:32;99035.03;;;27.50;49.98
73338;BME280;61575;49.908;35.556;2022-07-23T09:07:34;99032.22;;;27.65;48.51
73338;BME280;61575;49.908;35.556;2022-07-23T09:13:54;99036.50;;;27.37;48.60
73338;BME280;61575;49.908;35.556;2022-07-23T09:16:56;99027.13;;;27.82;48.10
73338;BME280;61575;49.908;35.556;2022-07-23T09:20:07;99021.16;;;27.70;48.10
73338;BME280;61575;49.908;35.556;2022-07-23T09:23:09;99021.78;;;27.57;48.25
73338;BME280;61575;49.908;35.556;2022-07-23T09:29:25;99016.53;;;27.65;48.84
73338;BME280;61575;49.908;35.556;2022-07-23T09:32:27;99022.22;;;27.74;47.47
73338;BME280;61575;49.908;35.556;2022-07-23T09:38:49;99023.75;;;27.02;49.44
73338;BME280;61575;49.908;35.556;2022-07-23T09:41:52;99017.31;;;27.22;50.02
73338;BME280;61575;49.908;35.556;2022-07-23T09:44:56;99027.50;;;27.21;49.95
73338;BME280;61575;49.908;35.556;2022-07-23T09:48:11;99031.16;;;27.06;50.39
73338;BME280;61575;49.908;35.556;2022-07-23T09:51:14;99029.84;;;26.84;50.70
73338;BME280;61575;49.908;35.556;2022-07-23T09:54:45;99023.97;;;27.16;50.53
73338;BME280;61575;49.908;35.556;2022-07-23T09:57:47;99034.84;;;26.71;51.24
73338;BME280;61575;49.908;35.556;2022-07-23T10:00:56;99034.03;;;26.66;50.11
73338;BME280;61575;49.908;35.556;2022-07-23T10:03:59;99035.47;;;26.48;50.49
73338;BME280;61575;49.908;35.556;2022-07-23T10:07:31;99032.84;;;26.92;50.49
73338;BME280;61575;49.908;35.556;2022-07-23T10:11:01;99024.81;;;27.60;49.56
73338;BME280;61575;49.908;35.556;2022-07-23T10:14:25;99025.75;;;27.40;48.78
73338;BME280;61575;49.908;35.556;2022-07-23T10:17:33;99042.69;;;27.14;49.41
73338;BME280;61575;49.908;35.556;2022-07-23T10:20:36;99046.59;;;26.92;50.01
73338;BME280;61575;49.908;35.556;2022-07-23T10:23:44;99047.53;;;26.52;51.08
73338;BME280;61575;49.908;35.556;2022-07-23T10:30:43;99038.19;;;26.58;51.12
73338;BME280;61575;49.908;35.556;2022-07-23T10:37:34;99027.97;;;26.69;50.50
73338;BME280;61575;49.908;35.556;2022-07-23T10:40:53;99038.47;;;26.57;51.51
73338;BME280;61575;49.908;35.556;2022-07-23T10:44:18;99037.66;;;26.46;51.13
73338;BME280;61575;49.908;35.556;2022-07-23T10:47:29;99018.31;;;26.76;51.51
73338;BME280;61575;49.908;35.556;2022-07-23T10:50:37;99014.72;;;26.81;50.40
73338;BME280;61575;49.908;35.556;2022-07-23T11:03:32;99022.28;;;26.30;50.40
73338;BME280;61575;49.908;35.556;2022-07-23T11:09:51;99013.38;;;26.78;53.01
73338;BME280;61575;49.908;35.556;2022-07-23T11:12:55;99000.78;;;27.27;50.56
73338;BME280;61575;49.908;35.556;2022-07-23T11:16:12;98998.06;;;27.66;47.81
73338;BME280;61575;49.908;35.556;2022-07-23T11:19:15;99005.03;;;27.87;48.06
73338;BME280;61575;49.908;35.556;2022-07-23T11:25:38;98999.47;;;27.63;46.67
73338;BME280;61575;49.908;35.556;2022-07-23T11:28:40;98996.53;;;27.84;45.63
73338;BME280;61575;49.908;35.556;2022-07-23T11:35:21;98997.16;;;28.38;44.60
73338;BME280;61575;49.908;35.556;2022-07-23T11:38:23;99004.91;;;28.60;45.33
73338;BME280;61575;49.908;35.556;2022-07-23T11:41:25;99011.34;;;28.75;43.17
73338;BME280;61575;49.908;35.556;2022-07-23T11:44:27;98996.28;;;28.67;43.17
73338;BME280;61575;49.908;35.556;2022-07-23T11:47:30;99003.84;;;29.04;42.94
73338;BME280;61575;49.908;35.556;2022-07-23T11:50:32;98987.88;;;29.20;42.81
73338;BME280;61575;49.908;35.556;2022-07-23T11:53:34;98997.47;;;29.46;43.43
73338;BME280;61575;49.908;35.556;2022-07-23T11:56:36;99003.47;;;29.11;42.82
73338;BME280;61575;49.908;35.556;2022-07-23T11:59:38;99003.78;;;28.61;43.19
73338;BME280;61575;49.908;35.556;2022-07-23T12:03:01;98998.69;;;28.74;42.45
73338;BME280;61575;49.908;35.556;2022-07-23T12:06:03;99003.50;;;28.05;43.10
73338;BME280;61575;49.908;35.556;2022-07-23T12:09:06;98998.63;;;27.97;44.39
73338;BME280;61575;49.908;35.556;2022-07-23T12:12:08;99007.47;;;28.28;44.70
73338;BME280;61575;49.908;35.556;2022-07-23T12:15:13;98996.81;;;28.69;43.93
73338;BME280;61575;49.908;35.556;2022-07-23T12:18:21;98993.31;;;29.06;44.55
73338;BME280;61575;49.908;35.556;2022-07-23T12:21:23;98991.16;;;29.41;43.13
73338;BME280;61575;49.908;35.556;2022-07-23T12:24:25;98982.75;;;29.51;41.44
73338;BME280;61575;49.908;35.556;2022-07-23T12:27:27;98988.13;;;29.61;42.05
73338;BME280;61575;49.908;35.556;2022-07-23T12:30:38;98992.97;;;29.69;40.25
73338;BME280;61575;49.908;35.556;2022-07-23T12:33:40;99003.25;;;29.82;41.22
73338;BME280;61575;49.908;35.556;2022-07-23T12:36:43;98991.50;;;29.90;40.39
73338;BME280;61575;49.908;35.556;2022-07-23T12:39:46;98990.38;;;29.91;39.79
73338;BME280;61575;49.908;35.556;2022-07-23T12:42:51;98981.94;;;30.02;39.18
73338;BME280;61575;49.908;35.556;2022-07-23T12:46:12;98984.38;;;29.71;39.46
73338;BME280;61575;49.908;35.556;2022-07-23T12:49:28;98976.84;;;29.39;39.99
73338;BME280;61575;49.908;35.556;2022-07-23T12:52:31;98963.41;;;29.51;40.34
73338;BME280;61575;49.908;35.556;2022-07-23T12:55:34;98961.16;;;29.34;39.20
73338;BME280;61575;49.908;35.556;2022-07-23T12:59:15;98969.03;;;29.46;38.96
73338;BME280;61575;49.908;35.556;2022-07-23T13:02:19;98974.00;;;29.62;39.83
73338;BME280;61575;49.908;35.556;2022-07-23T13:05:22;98964.13;;;29.75;40.36
73338;BME280;61575;49.908;35.556;2022-07-23T13:08:27;98973.16;;;29.81;38.76
73338;BME280;61575;49.908;35.556;2022-07-23T13:11:30;98971.16;;;29.68;39.10
73338;BME280;61575;49.908;35.556;2022-07-23T13:14:32;98971.28;;;29.76;39.26
73338;BME280;61575;49.908;35.556;2022-07-23T13:17:34;98961.19;;;29.85;39.08
73338;BME280;61575;49.908;35.556;2022-07-23T13:20:37;98966.47;;;30.01;38.66
73338;BME280;61575;49.908;35.556;2022-07-23T13:23:41;98963.22;;;30.12;37.99
73338;BME280;61575;49.908;35.556;2022-07-23T13:26:43;98961.78;;;30.15;37.69
73338;BME280;61575;49.908;35.556;2022-07-23T13:29:48;98959.34;;;30.13;36.84
73338;BME280;61575;49.908;35.556;2022-07-23T13:32:51;98961.41;;;30.21;37.98
73338;BME280;61575;49.908;35.556;2022-07-23T13:35:59;98961.41;;;30.35;37.00
73338;BME280;61575;49.908;35.556;2022-07-23T13:39:02;98959.03;;;30.28;36.89
73338;BME280;61575;49.908;35.556;2022-07-23T13:42:05;98953.69;;;30.05;37.00
73338;BME280;61575;49.908;35.556;2022-07-23T13:45:09;98949.03;;;30.00;37.74
73338;BME280;61575;49.908;35.556;2022-07-23T13:48:14;98951.34;;;29.79;37.68
73338;BME280;61575;49.908;35.556;2022-07-23T13:51:16;98949.75;;;29.59;38.76
73338;BME280;61575;49.908;35.556;2022-07-23T13:54:20;98944.91;;;29.32;39.44
73338;BME280;61575;49.908;35.556;2022-07-23T13:57:23;98944.47;;;29.25;39.82
73338;BME280;61575;49.908;35.556;2022-07-23T14:00:28;98944.84;;;29.19;40.00
73338;BME280;61575;49.908;35.556;2022-07-23T14:03:51;98954.19;;;28.80;40.87
73338;BME280;61575;49.908;35.556;2022-07-23T14:06:54;98963.88;;;28.78;41.25
73338;BME280;61575;49.908;35.556;2022-07-23T14:09:56;98962.81;;;28.74;42.30
73338;BME280;61575;49.908;35.556;2022-07-23T14:12:58;98970.81;;;28.51;42.03
73338;BME280;61575;49.908;35.556;2022-07-23T14:16:01;98981.25;;;28.30;45.89
73338;BME280;61575;49.908;35.556;2022-07-23T14:19:03;98973.72;;;28.07;48.11
73338;BME280;61575;49.908;35.556;2022-07-23T14:22:06;98977.31;;;27.79;49.12
73338;BME280;61575;49.908;35.556;2022-07-23T14:25:09;98984.03;;;27.62;51.31
73338;BME280;61575;49.908;35.556;2022-07-23T14:28:11;98983.00;;;27.48;52.80
73338;BME280;61575;49.908;35.556;2022-07-23T14:31:15;99006.06;;;27.18;52.20
73338;BME280;61575;49.908;35.556;2022-07-23T14:34:22;99025.25;;;26.64;52.24
73338;BME280;61575;49.908;35.556;2022-07-23T14:37:28;99025.59;;;26.01;54.30
73338;BME280;61575;49.908;35.556;2022-07-23T14:40:32;99005.53;;;25.40;57.24
73338;BME280;61575;49.908;35.556;2022-07-23T14:43:34;98988.47;;;25.17;59.03
73338;BME280;61575;49.908;35.556;2022-07-23T14:46:39;98993.09;;;25.02;61.15
73338;BME280;61575;49.908;35.556;2022-07-23T14:49:41;99007.84;;;24.96;61.68
73338;BME280;61575;49.908;35.556;2022-07-23T14:52:48;98997.38;;;24.82;63.53
73338;BME280;61575;49.908;35.556;2022-07-23T14:55:50;99003.03;;;24.61;64.69
73338;BME280;61575;49.908;35.556;2022-07-23T14:58:53;99020.81;;;24.53;65.05
73338;BME280;61575;49.908;35.556;2022-07-23T15:01:57;99004.31;;;24.43;65.83
73338;BME280;61575;49.908;35.556;2022-07-23T15:05:00;99003.13;;;24.29;66.71
73338;BME280;61575;49.908;35.556;2022-07-23T15:08:08;98998.44;;;24.24;67.56
73338;BME280;61575;49.908;35.556;2022-07-23T15:11:10;99000.50;;;24.07;68.38
73338;BME280;61575;49.908;35.556;2022-07-23T15:14:12;99007.78;;;23.91;70.01
73338;BME280;61575;49.908;35.556;2022-07-23T15:17:29;98995.28;;;24.05;68.55
73338;BME280;61575;49.908;35.556;2022-07-23T15:20:37;98995.81;;;24.02;68.71
73338;BME280;61575;49.908;35.556;2022-07-23T15:23:47;99010.00;;;23.94;68.69
73338;BME280;61575;49.908;35.556;2022-07-23T15:26:49;99008.19;;;23.73;69.05
73338;BME280;61575;49.908;35.556;2022-07-23T15:29:52;99010.22;;;23.55;69.33
73338;BME280;61575;49.908;35.556;2022-07-23T15:32:55;99017.41;;;23.40;69.74
73338;BME280;61575;49.908;35.556;2022-07-23T15:36:00;99027.41;;;23.02;69.62
73338;BME280;61575;49.908;35.556;2022-07-23T15:39:06;99012.53;;;22.93;69.62
73338;BME280;61575;49.908;35.556;2022-07-23T15:42:09;99007.38;;;22.97;69.59
73338;BME280;61575;49.908;35.556;2022-07-23T15:45:15;99014.94;;;22.89;70.39
73338;BME280;61575;49.908;35.556;2022-07-23T15:48:19;99007.78;;;22.83;70.31
73338;BME280;61575;49.908;35.556;2022-07-23T15:51:21;99003.38;;;22.82;70.00
73338;BME280;61575;49.908;35.556;2022-07-23T15:54:23;99001.38;;;22.78;70.12
73338;BME280;61575;49.908;35.556;2022-07-23T15:57:27;99002.47;;;22.77;70.29
73338;BME280;61575;49.908;35.556;2022-07-23T16:00:29;99000.69;;;22.66;71.35
73338;BME280;61575;49.908;35.556;2022-07-23T16:03:31;99001.06;;;22.74;70.70
73338;BME280;61575;49.908;35.556;2022-07-23T16:06:35;99002.91;;;22.69;71.30
73338;BME280;61575;49.908;35.556;2022-07-23T16:09:38;98997.44;;;22.47;72.70
73338;BME280;61575;49.908;35.556;2022-07-23T16:12:40;98990.56;;;22.44;72.57
73338;BME280;61575;49.908;35.556;2022-07-23T16:15:42;99002.56;;;22.43;72.19
73338;BME280;61575;49.908;35.556;2022-07-23T16:22:23;99002.69;;;22.32;72.00
73338;BME280;61575;49.908;35.556;2022-07-23T16:25:25;99009.06;;;22.20;72.15
73338;BME280;61575;49.908;35.556;2022-07-23T16:28:27;99019.41;;;22.02;72.38
73338;BME280;61575;49.908;35.556;2022-07-23T16:31:29;99026.19;;;21.99;72.00
73338;BME280;61575;49.908;35.556;2022-07-23T16:34:33;99033.91;;;22.02;71.98
73338;BME280;61575;49.908;35.556;2022-07-23T16:37:36;99037.28;;;21.92;72.37
73338;BME280;61575;49.908;35.556;2022-07-23T16:40:38;99040.16;;;21.69;73.84
73338;BME280;61575;49.908;35.556;2022-07-23T16:43:40;99040.97;;;21.70;73.84